sensor_id;sensor_type;location;lat;lon;timestamp;temperature;humidity
12847;DHT22;6492;48.128;8.320;2023-02-15T00:00:37;2.10;2.60
12847;DHT22;6492;48.128;8.320;2023-02-15T00:04:39;2.00;2.60
12847;DHT22;6492;48.128;8.320;2023-02-15T00:08:50;1.90;3.00
12847;DHT22;6492;48.128;8.320;2023-02-15T00:12:53;1.70;3.90
12847;DHT22;6492;48.128;8.320;2023-02-15T00:16:55;1.70;2.30
12847;DHT22;6492;48.128;8.320;2023-02-15T00:21:04;1.80;4.00
12847;DHT22;6492;48.128;8.320;2023-02-15T00:25:06;1.80;2.90
12847;DHT22;6492;48.128;8.320;2023-02-15T00:29:12;1.70;1.70
12847;DHT22;6492;48.128;8.320;2023-02-15T00:33:14;1.60;2.00
12847;DHT22;6492;48.128;8.320;2023-02-15T00:37:15;1.60;2.80
12847;DHT22;6492;48.128;8.320;2023-02-15T00:41:17;1.80;2.70
12847;DHT22;6492;48.128;8.320;2023-02-15T00:45:20;1.90;3.50
12847;DHT22;6492;48.128;8.320;2023-02-15T00:49:22;1.90;1.00
12847;DHT22;6492;48.128;8.320;2023-02-15T00:53:24;2.00;1.00
12847;DHT22;6492;48.128;8.320;2023-02-15T00:57:26;1.90;1.00
12847;DHT22;6492;48.128;8.320;2023-02-15T01:01:29;2.00;1.00
12847;DHT22;6492;48.128;8.320;2023-02-15T01:05:31;2.10;1.60
12847;DHT22;6492;48.128;8.320;2023-02-15T01:09:33;2.20;1.80
12847;DHT22;6492;48.128;8.320;2023-02-15T01:13:35;2.20;1.00
12847;DHT22;6492;48.128;8.320;2023-02-15T01:17:39;2.20;1.00
12847;DHT22;6492;48.128;8.320;2023-02-15T01:21:41;2.20;1.00
12847;DHT22;6492;48.128;8.320;2023-02-15T01:25:43;2.40;1.00
12847;DHT22;6492;48.128;8.320;2023-02-15T01:29:45;2.20;1.00
12847;DHT22;6492;48.128;8.320;2023-02-15T01:33:49;2.00;2.10
12847;DHT22;6492;48.128;8.320;2023-02-15T01:37:51;1.70;2.30
12847;DHT22;6492;48.128;8.320;2023-02-15T01:41:52;1.40;2.60
12847;DHT22;6492;48.128;8.320;2023-02-15T01:45:54;1.20;3.60
12847;DHT22;6492;48.128;8.320;2023-02-15T01:50:03;1.00;4.10
12847;DHT22;6492;48.128;8.320;2023-02-15T01:54:10;0.80;4.00
12847;DHT22;6492;48.128;8.320;2023-02-15T01:58:13;0.70;4.40
12847;DHT22;6492;48.128;8.320;2023-02-15T02:02:16;0.60;5.50
12847;DHT22;6492;48.128;8.320;2023-02-15T02:06:22;0.60;5.20
12847;DHT22;6492;48.128;8.320;2023-02-15T02:10:25;0.70;6.00
12847;DHT22;6492;48.128;8.320;2023-02-15T02:14:27;0.70;6.10
12847;DHT22;6492;48.128;8.320;2023-02-15T02:18:38;0.80;5.20
12847;DHT22;6492;48.128;8.320;2023-02-15T02:27:29;1.00;3.00
12847;DHT22;6492;48.128;8.320;2023-02-15T02:31:49;1.10;3.80
12847;DHT22;6492;48.128;8.320;2023-02-15T02:36:06;1.20;2.90
12847;DHT22;6492;48.128;8.320;2023-02-15T02:40:14;1.20;3.40
12847;DHT22;6492;48.128;8.320;2023-02-15T02:44:21;1.20;3.40
12847;DHT22;6492;48.128;8.320;2023-02-15T02:48:27;1.20;2.70
12847;DHT22;6492;48.128;8.320;2023-02-15T02:52:40;1.10;3.50
12847;DHT22;6492;48.128;8.320;2023-02-15T02:56:46;1.10;2.60
12847;DHT22;6492;48.128;8.320;2023-02-15T03:00:52;1.10;1.30
12847;DHT22;6492;48.128;8.320;2023-02-15T03:04:59;1.20;1.70
12847;DHT22;6492;48.128;8.320;2023-02-15T03:09:08;1.10;1.70
12847;DHT22;6492;48.128;8.320;2023-02-15T03:13:15;1.10;2.60
12847;DHT22;6492;48.128;8.320;2023-02-15T03:17:17;1.20;2.10
12847;DHT22;6492;48.128;8.320;2023-02-15T03:21:21;1.20;1.00
12847;DHT22;6492;48.128;8.320;2023-02-15T03:25:32;1.20;1.00
12847;DHT22;6492;48.128;8.320;2023-02-15T03:29:35;1.10;1.20
12847;DHT22;6492;48.128;8.320;2023-02-15T03:33:42;1.00;1.10
12847;DHT22;6492;48.128;8.320;2023-02-15T03:37:48;0.90;1.90
12847;DHT22;6492;48.128;8.320;2023-02-15T03:42:00;0.90;2.10
12847;DHT22;6492;48.128;8.320;2023-02-15T03:46:08;0.90;2.70
12847;DHT22;6492;48.128;8.320;2023-02-15T03:50:17;1.00;1.30
12847;DHT22;6492;48.128;8.320;2023-02-15T03:54:38;1.20;2.50
12847;DHT22;6492;48.128;8.320;2023-02-15T03:58:45;1.20;3.00
12847;DHT22;6492;48.128;8.320;2023-02-15T04:03:20;1.10;2.50
12847;DHT22;6492;48.128;8.320;2023-02-15T04:07:23;1.00;2.40
12847;DHT22;6492;48.128;8.320;2023-02-15T04:11:25;0.90;2.80
12847;DHT22;6492;48.128;8.320;2023-02-15T04:15:28;0.90;2.30
12847;DHT22;6492;48.128;8.320;2023-02-15T04:19:47;0.80;3.10
12847;DHT22;6492;48.128;8.320;2023-02-15T04:24:07;0.90;4.50
12847;DHT22;6492;48.128;8.320;2023-02-15T04:28:27;0.90;3.70
12847;DHT22;6492;48.128;8.320;2023-02-15T04:32:30;0.80;4.70
12847;DHT22;6492;48.128;8.320;2023-02-15T04:36:32;0.90;3.60
12847;DHT22;6492;48.128;8.320;2023-02-15T04:40:34;1.00;2.20
12847;DHT22;6492;48.128;8.320;2023-02-15T04:44:35;1.30;1.80
12847;DHT22;6492;48.128;8.320;2023-02-15T04:48:38;1.40;1.60
12847;DHT22;6492;48.128;8.320;2023-02-15T04:52:40;1.50;1.80
12847;DHT22;6492;48.128;8.320;2023-02-15T04:56:42;1.60;2.10
12847;DHT22;6492;48.128;8.320;2023-02-15T05:00:44;1.50;1.10
12847;DHT22;6492;48.128;8.320;2023-02-15T05:04:47;1.40;2.00
12847;DHT22;6492;48.128;8.320;2023-02-15T05:09:01;1.30;2.50
12847;DHT22;6492;48.128;8.320;2023-02-15T05:13:03;1.10;2.60
12847;DHT22;6492;48.128;8.320;2023-02-15T05:17:04;1.10;3.30
12847;DHT22;6492;48.128;8.320;2023-02-15T05:21:08;1.00;3.90
12847;DHT22;6492;48.128;8.320;2023-02-15T05:25:09;0.90;3.50
12847;DHT22;6492;48.128;8.320;2023-02-15T05:29:28;1.00;2.30
12847;DHT22;6492;48.128;8.320;2023-02-15T05:33:30;0.90;2.40
12847;DHT22;6492;48.128;8.320;2023-02-15T05:37:42;0.80;1.90
12847;DHT22;6492;48.128;8.320;2023-02-15T05:41:44;0.90;3.30
12847;DHT22;6492;48.128;8.320;2023-02-15T05:45:46;0.80;2.70
12847;DHT22;6492;48.128;8.320;2023-02-15T05:49:49;0.80;3.20
12847;DHT22;6492;48.128;8.320;2023-02-15T05:53:52;0.90;2.10
12847;DHT22;6492;48.128;8.320;2023-02-15T05:57:54;1.10;1.30
12847;DHT22;6492;48.128;8.320;2023-02-15T06:01:56;1.00;1.40
12847;DHT22;6492;48.128;8.320;2023-02-15T06:05:58;1.00;1.60
12847;DHT22;6492;48.128;8.320;2023-02-15T06:10:01;0.90;3.00
12847;DHT22;6492;48.128;8.320;2023-02-15T06:14:02;0.90;2.30
12847;DHT22;6492;48.128;8.320;2023-02-15T06:18:04;0.90;1.50
12847;DHT22;6492;48.128;8.320;2023-02-15T06:22:06;0.80;1.00
12847;DHT22;6492;48.128;8.320;2023-02-15T06:26:09;0.80;2.00
12847;DHT22;6492;48.128;8.320;2023-02-15T06:30:12;0.70;2.60
12847;DHT22;6492;48.128;8.320;2023-02-15T06:34:14;0.60;2.40
12847;DHT22;6492;48.128;8.320;2023-02-15T06:38:16;0.60;2.50
12847;DHT22;6492;48.128;8.320;2023-02-15T06:42:19;0.60;2.70
12847;DHT22;6492;48.128;8.320;2023-02-15T06:46:21;0.60;3.70
12847;DHT22;6492;48.128;8.320;2023-02-15T06:50:22;0.70;3.10
12847;DHT22;6492;48.128;8.320;2023-02-15T06:54:24;0.70;3.00
12847;DHT22;6492;48.128;8.320;2023-02-15T06:58:27;0.80;1.90
12847;DHT22;6492;48.128;8.320;2023-02-15T07:02:30;1.00;2.60
12847;DHT22;6492;48.128;8.320;2023-02-15T07:06:32;1.10;2.40
12847;DHT22;6492;48.128;8.320;2023-02-15T07:10:34;1.20;1.00
12847;DHT22;6492;48.128;8.320;2023-02-15T07:14:38;1.20;1.10
12847;DHT22;6492;48.128;8.320;2023-02-15T07:18:41;1.60;1.00
12847;DHT22;6492;48.128;8.320;2023-02-15T07:22:42;1.90;1.00
12847;DHT22;6492;48.128;8.320;2023-02-15T07:26:44;2.20;1.00
12847;DHT22;6492;48.128;8.320;2023-02-15T07:30:47;2.30;1.00
12847;DHT22;6492;48.128;8.320;2023-02-15T07:34:49;2.40;1.00
12847;DHT22;6492;48.128;8.320;2023-02-15T07:38:51;2.50;1.00
12847;DHT22;6492;48.128;8.320;2023-02-15T07:42:53;2.50;1.00
12847;DHT22;6492;48.128;8.320;2023-02-15T07:46:56;2.50;1.00
12847;DHT22;6492;48.128;8.320;2023-02-15T07:50:58;2.70;1.00
12847;DHT22;6492;48.128;8.320;2023-02-15T07:55:00;2.80;1.00
12847;DHT22;6492;48.128;8.320;2023-02-15T07:59:02;3.00;1.00
12847;DHT22;6492;48.128;8.320;2023-02-15T08:03:06;3.20;1.00
12847;DHT22;6492;48.128;8.320;2023-02-15T08:07:14;3.20;1.00
12847;DHT22;6492;48.128;8.320;2023-02-15T08:11:18;3.40;1.00
12847;DHT22;6492;48.128;8.320;2023-02-15T08:15:26;3.50;1.00
12847;DHT22;6492;48.128;8.320;2023-02-15T08:19:31;3.80;1.00
12847;DHT22;6492;48.128;8.320;2023-02-15T08:23:34;3.90;1.00
12847;DHT22;6492;48.128;8.320;2023-02-15T08:27:36;4.10;1.00
12847;DHT22;6492;48.128;8.320;2023-02-15T08:31:38;4.30;1.00
12847;DHT22;6492;48.128;8.320;2023-02-15T08:35:51;4.50;1.00
12847;DHT22;6492;48.128;8.320;2023-02-15T08:39:52;4.80;1.00
12847;DHT22;6492;48.128;8.320;2023-02-15T08:43:56;5.10;1.00
12847;DHT22;6492;48.128;8.320;2023-02-15T08:47:58;5.40;1.00
12847;DHT22;6492;48.128;8.320;2023-02-15T08:52:01;5.70;1.00
12847;DHT22;6492;48.128;8.320;2023-02-15T08:56:03;5.90;1.00
12847;DHT22;6492;48.128;8.320;2023-02-15T09:00:06;6.20;1.00
12847;DHT22;6492;48.128;8.320;2023-02-15T09:04:09;6.50;1.00
12847;DHT22;6492;48.128;8.320;2023-02-15T09:08:12;6.70;1.00
12847;DHT22;6492;48.128;8.320;2023-02-15T09:12:14;7.00;1.00
12847;DHT22;6492;48.128;8.320;2023-02-15T09:16:16;7.40;1.00
12847;DHT22;6492;48.128;8.320;2023-02-15T09:20:18;7.80;1.00
12847;DHT22;6492;48.128;8.320;2023-02-15T09:24:21;8.30;1.00
12847;DHT22;6492;48.128;8.320;2023-02-15T09:28:23;8.90;1.00
12847;DHT22;6492;48.128;8.320;2023-02-15T09:32:25;9.40;1.00
12847;DHT22;6492;48.128;8.320;2023-02-15T09:36:29;9.90;1.00
12847;DHT22;6492;48.128;8.320;2023-02-15T09:40:38;10.30;1.00
12847;DHT22;6492;48.128;8.320;2023-02-15T09:49:17;11.40;1.00
12847;DHT22;6492;48.128;8.320;2023-02-15T09:53:33;11.90;1.00
12847;DHT22;6492;48.128;8.320;2023-02-15T09:57:51;12.40;1.00
12847;DHT22;6492;48.128;8.320;2023-02-15T10:02:01;12.80;1.00
12847;DHT22;6492;48.128;8.320;2023-02-15T10:06:32;13.20;1.00
12847;DHT22;6492;48.128;8.320;2023-02-15T10:10:47;13.60;1.00
12847;DHT22;6492;48.128;8.320;2023-02-15T10:15:22;13.90;1.00
12847;DHT22;6492;48.128;8.320;2023-02-15T10:19:34;14.20;1.00
12847;DHT22;6492;48.128;8.320;2023-02-15T10:23:54;14.50;1.00
12847;DHT22;6492;48.128;8.320;2023-02-15T10:28:05;14.90;1.00
12847;DHT22;6492;48.128;8.320;2023-02-15T10:32:20;15.50;1.00
12847;DHT22;6492;48.128;8.320;2023-02-15T10:36:33;15.90;1.00
12847;DHT22;6492;48.128;8.320;2023-02-15T10:40:46;16.20;1.00
12847;DHT22;6492;48.128;8.320;2023-02-15T10:45:03;16.30;1.00
12847;DHT22;6492;48.128;8.320;2023-02-15T10:49:19;16.60;1.00
12847;DHT22;6492;48.128;8.320;2023-02-15T10:53:52;16.80;1.00
12847;DHT22;6492;48.128;8.320;2023-02-15T10:58:05;17.00;1.00
12847;DHT22;6492;48.128;8.320;2023-02-15T11:02:18;17.20;1.00
12847;DHT22;6492;48.128;8.320;2023-02-15T11:06:25;17.30;1.00
12847;DHT22;6492;48.128;8.320;2023-02-15T11:10:31;17.30;1.00
12847;DHT22;6492;48.128;8.320;2023-02-15T11:14:38;17.50;1.00
12847;DHT22;6492;48.128;8.320;2023-02-15T11:18:45;17.80;1.00
12847;DHT22;6492;48.128;8.320;2023-02-15T11:22:50;18.30;1.00
12847;DHT22;6492;48.128;8.320;2023-02-15T11:26:56;18.50;1.00
12847;DHT22;6492;48.128;8.320;2023-02-15T11:31:01;18.50;1.00
12847;DHT22;6492;48.128;8.320;2023-02-15T11:35:10;19.00;1.00
12847;DHT22;6492;48.128;8.320;2023-02-15T11:39:21;19.10;1.00
12847;DHT22;6492;48.128;8.320;2023-02-15T11:43:31;19.20;1.00
12847;DHT22;6492;48.128;8.320;2023-02-15T11:47:34;19.30;1.00
12847;DHT22;6492;48.128;8.320;2023-02-15T11:51:36;19.20;1.00
12847;DHT22;6492;48.128;8.320;2023-02-15T11:55:39;19.20;1.00
12847;DHT22;6492;48.128;8.320;2023-02-15T11:59:46;19.20;1.00
12847;DHT22;6492;48.128;8.320;2023-02-15T12:03:51;19.40;1.00
12847;DHT22;6492;48.128;8.320;2023-02-15T12:07:57;19.60;1.00
12847;DHT22;6492;48.128;8.320;2023-02-15T12:12:21;19.90;1.00
12847;DHT22;6492;48.128;8.320;2023-02-15T12:16:24;20.00;1.00
12847;DHT22;6492;48.128;8.320;2023-02-15T12:20:30;20.20;1.00
12847;DHT22;6492;48.128;8.320;2023-02-15T12:24:34;20.40;1.00
12847;DHT22;6492;48.128;8.320;2023-02-15T12:28:41;20.40;1.00
12847;DHT22;6492;48.128;8.320;2023-02-15T12:32:48;20.00;1.00
12847;DHT22;6492;48.128;8.320;2023-02-15T12:36:53;19.90;1.00
12847;DHT22;6492;48.128;8.320;2023-02-15T12:41:00;19.70;1.00
12847;DHT22;6492;48.128;8.320;2023-02-15T12:45:21;19.90;1.00
12847;DHT22;6492;48.128;8.320;2023-02-15T12:49:24;20.10;1.00
12847;DHT22;6492;48.128;8.320;2023-02-15T12:53:31;20.10;1.00
12847;DHT22;6492;48.128;8.320;2023-02-15T12:57:33;20.30;1.00
12847;DHT22;6492;48.128;8.320;2023-02-15T13:01:37;20.10;1.00
12847;DHT22;6492;48.128;8.320;2023-02-15T13:05:40;20.10;1.00
12847;DHT22;6492;48.128;8.320;2023-02-15T13:09:44;19.90;1.00
12847;DHT22;6492;48.128;8.320;2023-02-15T13:13:52;20.10;1.00
12847;DHT22;6492;48.128;8.320;2023-02-15T13:17:57;20.20;1.00
12847;DHT22;6492;48.128;8.320;2023-02-15T13:22:05;20.10;1.00
12847;DHT22;6492;48.128;8.320;2023-02-15T13:26:12;20.40;1.00
12847;DHT22;6492;48.128;8.320;2023-02-15T13:30:24;20.60;1.00
12847;DHT22;6492;48.128;8.320;2023-02-15T13:34:30;20.70;1.00
12847;DHT22;6492;48.128;8.320;2023-02-15T13:38:46;20.50;1.00
12847;DHT22;6492;48.128;8.320;2023-02-15T13:42:54;20.50;1.00
12847;DHT22;6492;48.128;8.320;2023-02-15T13:47:09;20.80;1.00
12847;DHT22;6492;48.128;8.320;2023-02-15T13:51:22;20.80;1.00
12847;DHT22;6492;48.128;8.320;2023-02-15T13:55:36;20.60;1.00
12847;DHT22;6492;48.128;8.320;2023-02-15T13:59:47;20.50;1.00
12847;DHT22;6492;48.128;8.320;2023-02-15T14:04:17;20.50;1.00
12847;DHT22;6492;48.128;8.320;2023-02-15T14:08:37;20.30;1.00
12847;DHT22;6492;48.128;8.320;2023-02-15T14:12:53;20.50;1.00
12847;DHT22;6492;48.128;8.320;2023-02-15T14:17:05;20.50;1.00
12847;DHT22;6492;48.128;8.320;2023-02-15T14:21:13;20.30;1.00
12847;DHT22;6492;48.128;8.320;2023-02-15T14:25:23;20.00;1.00
12847;DHT22;6492;48.128;8.320;2023-02-15T14:29:40;19.70;1.00
12847;DHT22;6492;48.128;8.320;2023-02-15T14:33:49;19.30;1.00
12847;DHT22;6492;48.128;8.320;2023-02-15T14:37:58;18.70;1.00
12847;DHT22;6492;48.128;8.320;2023-02-15T14:42:09;18.50;1.00
12847;DHT22;6492;48.128;8.320;2023-02-15T14:46:21;18.70;1.00
12847;DHT22;6492;48.128;8.320;2023-02-15T14:50:52;18.90;1.00
12847;DHT22;6492;48.128;8.320;2023-02-15T14:54:58;19.00;1.00
12847;DHT22;6492;48.128;8.320;2023-02-15T14:59:17;19.10;1.00
12847;DHT22;6492;48.128;8.320;2023-02-15T15:03:22;18.90;1.00
12847;DHT22;6492;48.128;8.320;2023-02-15T15:07:27;18.90;1.00
12847;DHT22;6492;48.128;8.320;2023-02-15T15:11:42;18.70;1.00
12847;DHT22;6492;48.128;8.320;2023-02-15T15:15:46;18.40;1.00
12847;DHT22;6492;48.128;8.320;2023-02-15T15:19:59;18.10;1.00
12847;DHT22;6492;48.128;8.320;2023-02-15T15:24:01;17.90;1.00
12847;DHT22;6492;48.128;8.320;2023-02-15T15:28:06;17.80;1.00
12847;DHT22;6492;48.128;8.320;2023-02-15T15:32:11;17.80;1.00
12847;DHT22;6492;48.128;8.320;2023-02-15T15:41:15;17.30;1.00
12847;DHT22;6492;48.128;8.320;2023-02-15T15:45:38;16.60;1.00
12847;DHT22;6492;48.128;8.320;2023-02-15T15:49:45;15.80;1.00
12847;DHT22;6492;48.128;8.320;2023-02-15T15:54:03;15.10;1.00
12847;DHT22;6492;48.128;8.320;2023-02-15T15:58:07;14.50;1.00
12847;DHT22;6492;48.128;8.320;2023-02-15T16:02:15;14.00;1.00
12847;DHT22;6492;48.128;8.320;2023-02-15T16:06:44;13.50;1.00
12847;DHT22;6492;48.128;8.320;2023-02-15T16:10:46;13.00;1.00
12847;DHT22;6492;48.128;8.320;2023-02-15T16:14:48;12.60;1.00
12847;DHT22;6492;48.128;8.320;2023-02-15T16:18:52;12.20;1.00
12847;DHT22;6492;48.128;8.320;2023-02-15T16:23:08;11.70;1.00
12847;DHT22;6492;48.128;8.320;2023-02-15T16:27:37;11.30;1.00
12847;DHT22;6492;48.128;8.320;2023-02-15T16:31:41;10.80;1.00
12847;DHT22;6492;48.128;8.320;2023-02-15T16:35:57;10.40;1.00
12847;DHT22;6492;48.128;8.320;2023-02-15T16:40:42;9.90;1.00
12847;DHT22;6492;48.128;8.320;2023-02-15T16:44:57;9.50;1.00
12847;DHT22;6492;48.128;8.320;2023-02-15T16:49:07;9.10;1.00
12847;DHT22;6492;48.128;8.320;2023-02-15T16:53:16;8.70;1.00
12847;DHT22;6492;48.128;8.320;2023-02-15T16:57:23;8.40;1.00
12847;DHT22;6492;48.128;8.320;2023-02-15T17:01:28;8.00;1.00
12847;DHT22;6492;48.128;8.320;2023-02-15T17:05:50;7.70;1.00
12847;DHT22;6492;48.128;8.320;2023-02-15T17:09:53;7.40;1.00
12847;DHT22;6492;48.128;8.320;2023-02-15T17:14:22;7.30;1.00
12847;DHT22;6492;48.128;8.320;2023-02-15T17:18:30;7.00;1.60
12847;DHT22;6492;48.128;8.320;2023-02-15T17:22:32;6.70;1.70
12847;DHT22;6492;48.128;8.320;2023-02-15T17:26:36;6.40;2.90
12847;DHT22;6492;48.128;8.320;2023-02-15T17:30:40;6.20;4.00
12847;DHT22;6492;48.128;8.320;2023-02-15T17:35:08;6.00;3.40
12847;DHT22;6492;48.128;8.320;2023-02-15T17:39:19;5.70;3.80
12847;DHT22;6492;48.128;8.320;2023-02-15T17:43:22;5.50;4.90
12847;DHT22;6492;48.128;8.320;2023-02-15T17:47:26;5.30;5.10
12847;DHT22;6492;48.128;8.320;2023-02-15T17:51:30;5.20;6.40
12847;DHT22;6492;48.128;8.320;2023-02-15T17:55:35;5.10;6.60
12847;DHT22;6492;48.128;8.320;2023-02-15T17:59:38;5.00;6.80
12847;DHT22;6492;48.128;8.320;2023-02-15T18:04:00;5.10;8.00
12847;DHT22;6492;48.128;8.320;2023-02-15T18:08:25;5.00;7.30
12847;DHT22;6492;48.128;8.320;2023-02-15T18:12:45;4.80;7.40
12847;DHT22;6492;48.128;8.320;2023-02-15T18:16:47;4.70;8.70
12847;DHT22;6492;48.128;8.320;2023-02-15T18:20:50;4.60;7.70
12847;DHT22;6492;48.128;8.320;2023-02-15T18:24:51;4.50;8.30
12847;DHT22;6492;48.128;8.320;2023-02-15T18:28:55;4.30;7.90
12847;DHT22;6492;48.128;8.320;2023-02-15T18:32:57;4.10;8.40
12847;DHT22;6492;48.128;8.320;2023-02-15T18:37:02;4.00;8.70
12847;DHT22;6492;48.128;8.320;2023-02-15T18:41:05;4.00;8.60
12847;DHT22;6492;48.128;8.320;2023-02-15T18:45:12;4.00;8.20
12847;DHT22;6492;48.128;8.320;2023-02-15T18:49:15;4.20;7.00
12847;DHT22;6492;48.128;8.320;2023-02-15T18:53:20;4.10;7.00
12847;DHT22;6492;48.128;8.320;2023-02-15T18:57:22;4.10;8.70
12847;DHT22;6492;48.128;8.320;2023-02-15T19:01:27;4.10;8.60
12847;DHT22;6492;48.128;8.320;2023-02-15T19:05:30;4.10;7.60
12847;DHT22;6492;48.128;8.320;2023-02-15T19:09:33;4.10;7.00
12847;DHT22;6492;48.128;8.320;2023-02-15T19:13:35;4.10;6.40
12847;DHT22;6492;48.128;8.320;2023-02-15T19:17:39;4.10;8.40
12847;DHT22;6492;48.128;8.320;2023-02-15T19:21:41;4.10;9.10
12847;DHT22;6492;48.128;8.320;2023-02-15T19:25:45;3.90;9.10
12847;DHT22;6492;48.128;8.320;2023-02-15T19:29:47;3.90;8.90
12847;DHT22;6492;48.128;8.320;2023-02-15T19:33:50;3.90;9.10
12847;DHT22;6492;48.128;8.320;2023-02-15T19:37:53;3.80;9.20
12847;DHT22;6492;48.128;8.320;2023-02-15T19:41:57;3.70;10.10
12847;DHT22;6492;48.128;8.320;2023-02-15T19:45:59;3.70;9.30
12847;DHT22;6492;48.128;8.320;2023-02-15T19:50:05;3.70;6.90
12847;DHT22;6492;48.128;8.320;2023-02-15T19:54:17;3.80;5.60
12847;DHT22;6492;48.128;8.320;2023-02-15T19:58:21;3.90;4.90
12847;DHT22;6492;48.128;8.320;2023-02-15T20:02:23;3.90;4.60
12847;DHT22;6492;48.128;8.320;2023-02-15T20:06:25;3.80;5.00
12847;DHT22;6492;48.128;8.320;2023-02-15T20:10:29;3.70;6.80
12847;DHT22;6492;48.128;8.320;2023-02-15T20:14:32;3.60;6.50
12847;DHT22;6492;48.128;8.320;2023-02-15T20:18:34;3.40;7.20
12847;DHT22;6492;48.128;8.320;2023-02-15T20:22:36;3.30;8.10
12847;DHT22;6492;48.128;8.320;2023-02-15T20:27:03;3.20;10.30
12847;DHT22;6492;48.128;8.320;2023-02-15T20:31:11;3.20;10.00
12847;DHT22;6492;48.128;8.320;2023-02-15T20:35:19;3.10;10.40
12847;DHT22;6492;48.128;8.320;2023-02-15T20:39:50;3.10;9.50
12847;DHT22;6492;48.128;8.320;2023-02-15T20:44:21;3.30;8.20
12847;DHT22;6492;48.128;8.320;2023-02-15T20:48:53;3.50;7.30
12847;DHT22;6492;48.128;8.320;2023-02-15T20:53:02;3.50;7.50
12847;DHT22;6492;48.128;8.320;2023-02-15T20:57:11;3.90;8.00
12847;DHT22;6492;48.128;8.320;2023-02-15T21:01:21;3.30;8.30
12847;DHT22;6492;48.128;8.320;2023-02-15T21:05:25;3.30;8.70
12847;DHT22;6492;48.128;8.320;2023-02-15T21:09:28;3.20;8.20
12847;DHT22;6492;48.128;8.320;2023-02-15T21:13:31;3.10;7.70
12847;DHT22;6492;48.128;8.320;2023-02-15T21:17:33;3.00;8.20
12847;DHT22;6492;48.128;8.320;2023-02-15T21:21:36;3.00;8.20
12847;DHT22;6492;48.128;8.320;2023-02-15T21:25:38;3.00;8.10
12847;DHT22;6492;48.128;8.320;2023-02-15T21:29:40;3.00;8.70
12847;DHT22;6492;48.128;8.320;2023-02-15T21:33:52;2.80;8.80
12847;DHT22;6492;48.128;8.320;2023-02-15T21:37:55;2.80;9.20
12847;DHT22;6492;48.128;8.320;2023-02-15T21:41:57;2.70;9.30
12847;DHT22;6492;48.128;8.320;2023-02-15T21:46:18;2.70;9.30
12847;DHT22;6492;48.128;8.320;2023-02-15T21:50:54;2.60;9.00
12847;DHT22;6492;48.128;8.320;2023-02-15T21:55:15;2.50;9.10
12847;DHT22;6492;48.128;8.320;2023-02-15T21:59:18;2.50;8.80
12847;DHT22;6492;48.128;8.320;2023-02-15T22:03:30;2.50;9.00
12847;DHT22;6492;48.128;8.320;2023-02-15T22:07:32;2.30;9.20
12847;DHT22;6492;48.128;8.320;2023-02-15T22:11:35;2.20;9.50
12847;DHT22;6492;48.128;8.320;2023-02-15T22:15:37;2.20;9.60
12847;DHT22;6492;48.128;8.320;2023-02-15T22:19:39;2.20;9.20
12847;DHT22;6492;48.128;8.320;2023-02-15T22:23:41;2.30;12.50
12847;DHT22;6492;48.128;8.320;2023-02-15T22:27:45;2.40;11.90
12847;DHT22;6492;48.128;8.320;2023-02-15T22:31:47;2.40;11.40
12847;DHT22;6492;48.128;8.320;2023-02-15T22:35:50;2.30;11.50
12847;DHT22;6492;48.128;8.320;2023-02-15T22:39:52;2.20;11.40
12847;DHT22;6492;48.128;8.320;2023-02-15T22:43:55;2.10;10.80
12847;DHT22;6492;48.128;8.320;2023-02-15T22:47:59;2.20;10.30
12847;DHT22;6492;48.128;8.320;2023-02-15T22:52:01;2.30;9.90
12847;DHT22;6492;48.128;8.320;2023-02-15T22:56:05;2.30;9.90
12847;DHT22;6492;48.128;8.320;2023-02-15T23:00:15;2.40;9.90
12847;DHT22;6492;48.128;8.320;2023-02-15T23:04:20;2.60;9.40
12847;DHT22;6492;48.128;8.320;2023-02-15T23:08:22;2.80;9.20
12847;DHT22;6492;48.128;8.320;2023-02-15T23:12:25;3.00;9.30
12847;DHT22;6492;48.128;8.320;2023-02-15T23:16:29;3.20;9.30
12847;DHT22;6492;48.128;8.320;2023-02-15T23:20:31;3.40;9.30
12847;DHT22;6492;48.128;8.320;2023-02-15T23:24:33;3.40;9.80
12847;DHT22;6492;48.128;8.320;2023-02-15T23:28:36;3.30;10.20
12847;DHT22;6492;48.128;8.320;2023-02-15T23:32:39;3.20;10.90
12847;DHT22;6492;48.128;8.320;2023-02-15T23:36:42;3.20;11.30
12847;DHT22;6492;48.128;8.320;2023-02-15T23:40:48;3.10;11.80
12847;DHT22;6492;48.128;8.320;2023-02-15T23:45:19;3.00;12.30
12847;DHT22;6492;48.128;8.320;2023-02-15T23:49:23;2.90;13.00
12847;DHT22;6492;48.128;8.320;2023-02-15T23:53:25;2.70;13.20
12847;DHT22;6492;48.128;8.320;2023-02-15T23:57:27;2.60;15.20
